sensor_id;sensor_type;location;lat;lon;timestamp;P1;durP1;ratioP1;P2;durP2;ratioP2
32152;SDS011;18656;50.580;11.392;2022-12-18T00:01:48;12.20;;;7.55;;
32152;SDS011;18656;50.580;11.392;2022-12-18T00:04:23;15.13;;;7.80;;
32152;SDS011;18656;50.580;11.392;2022-12-18T00:06:50;15.40;;;7.38;;
32152;SDS011;18656;50.580;11.392;2022-12-18T00:09:18;13.27;;;6.93;;
32152;SDS011;18656;50.580;11.392;2022-12-18T00:11:45;20.85;;;8.00;;
32152;SDS011;18656;50.580;11.392;2022-12-18T00:14:13;12.48;;;6.60;;
32152;SDS011;18656;50.580;11.392;2022-12-18T00:16:42;12.60;;;6.28;;
32152;SDS011;18656;50.580;11.392;2022-12-18T00:19:10;14.15;;;7.40;;
32152;SDS011;18656;50.580;11.392;2022-12-18T00:21:37;13.05;;;7.13;;
32152;SDS011;18656;50.580;11.392;2022-12-18T00:24:09;13.15;;;7.40;;
32152;SDS011;18656;50.580;11.392;2022-12-18T00:26:37;13.02;;;6.50;;
32152;SDS011;18656;50.580;11.392;2022-12-18T00:29:06;16.25;;;6.85;;
32152;SDS011;18656;50.580;11.392;2022-12-18T00:31:34;18.13;;;8.85;;
32152;SDS011;18656;50.580;11.392;2022-12-18T00:34:01;17.67;;;8.90;;
32152;SDS011;18656;50.580;11.392;2022-12-18T00:36:30;18.60;;;8.15;;
32152;SDS011;18656;50.580;11.392;2022-12-18T00:38:58;16.30;;;7.82;;
32152;SDS011;18656;50.580;11.392;2022-12-18T00:41:26;17.95;;;7.25;;
32152;SDS011;18656;50.580;11.392;2022-12-18T00:44:13;16.73;;;6.93;;
32152;SDS011;18656;50.580;11.392;2022-12-18T00:46:41;14.48;;;7.30;;
32152;SDS011;18656;50.580;11.392;2022-12-18T00:49:09;13.52;;;6.65;;
32152;SDS011;18656;50.580;11.392;2022-12-18T00:51:36;17.17;;;7.10;;
32152;SDS011;18656;50.580;11.392;2022-12-18T00:54:03;15.98;;;7.75;;
32152;SDS011;18656;50.580;11.392;2022-12-18T00:56:31;14.35;;;7.45;;
32152;SDS011;18656;50.580;11.392;2022-12-18T00:58:58;13.18;;;6.65;;
32152;SDS011;18656;50.580;11.392;2022-12-18T01:01:25;13.80;;;7.32;;
32152;SDS011;18656;50.580;11.392;2022-12-18T01:03:52;14.23;;;7.70;;
32152;SDS011;18656;50.580;11.392;2022-12-18T01:06:20;11.52;;;7.13;;
32152;SDS011;18656;50.580;11.392;2022-12-18T01:08:47;19.13;;;8.70;;
32152;SDS011;18656;50.580;11.392;2022-12-18T01:11:15;12.93;;;7.60;;
32152;SDS011;18656;50.580;11.392;2022-12-18T01:13:43;20.38;;;9.32;;
32152;SDS011;18656;50.580;11.392;2022-12-18T01:16:11;20.35;;;9.73;;
32152;SDS011;18656;50.580;11.392;2022-12-18T01:18:38;21.10;;;9.05;;
32152;SDS011;18656;50.580;11.392;2022-12-18T01:21:10;22.35;;;8.93;;
32152;SDS011;18656;50.580;11.392;2022-12-18T01:23:38;20.50;;;7.88;;
32152;SDS011;18656;50.580;11.392;2022-12-18T01:26:10;17.48;;;7.93;;
32152;SDS011;18656;50.580;11.392;2022-12-18T01:28:38;20.55;;;8.15;;
32152;SDS011;18656;50.580;11.392;2022-12-18T01:31:14;17.92;;;8.15;;
32152;SDS011;18656;50.580;11.392;2022-12-18T01:33:41;19.20;;;7.57;;
32152;SDS011;18656;50.580;11.392;2022-12-18T01:36:14;15.57;;;8.05;;
32152;SDS011;18656;50.580;11.392;2022-12-18T01:41:08;17.15;;;6.72;;
32152;SDS011;18656;50.580;11.392;2022-12-18T01:46:15;14.88;;;7.78;;
32152;SDS011;18656;50.580;11.392;2022-12-18T01:48:44;14.73;;;6.75;;
32152;SDS011;18656;50.580;11.392;2022-12-18T01:51:11;14.52;;;7.47;;
32152;SDS011;18656;50.580;11.392;2022-12-18T01:53:40;14.25;;;7.40;;
32152;SDS011;18656;50.580;11.392;2022-12-18T01:56:11;11.70;;;6.68;;
32152;SDS011;18656;50.580;11.392;2022-12-18T01:58:41;11.93;;;6.93;;
32152;SDS011;18656;50.580;11.392;2022-12-18T02:01:10;17.13;;;7.13;;
32152;SDS011;18656;50.580;11.392;2022-12-18T02:03:40;14.77;;;6.40;;
32152;SDS011;18656;50.580;11.392;2022-12-18T02:14:16;11.50;;;5.80;;
32152;SDS011;18656;50.580;11.392;2022-12-18T02:16:52;14.27;;;6.90;;
32152;SDS011;18656;50.580;11.392;2022-12-18T02:19:32;14.45;;;5.97;;
32152;SDS011;18656;50.580;11.392;2022-12-18T02:27:20;15.77;;;5.65;;
32152;SDS011;18656;50.580;11.392;2022-12-18T02:29:50;10.27;;;5.78;;
32152;SDS011;18656;50.580;11.392;2022-12-18T02:32:28;10.98;;;5.82;;
32152;SDS011;18656;50.580;11.392;2022-12-18T02:34:56;11.82;;;6.10;;
32152;SDS011;18656;50.580;11.392;2022-12-18T02:37:24;11.52;;;4.97;;
32152;SDS011;18656;50.580;11.392;2022-12-18T02:39:52;9.05;;;4.75;;
32152;SDS011;18656;50.580;11.392;2022-12-18T02:42:21;9.07;;;4.90;;
32152;SDS011;18656;50.580;11.392;2022-12-18T02:44:49;14.80;;;5.90;;
32152;SDS011;18656;50.580;11.392;2022-12-18T02:47:18;9.45;;;5.55;;
32152;SDS011;18656;50.580;11.392;2022-12-18T02:50:05;10.18;;;6.00;;
32152;SDS011;18656;50.580;11.392;2022-12-18T02:57:37;7.97;;;5.22;;
32152;SDS011;18656;50.580;11.392;2022-12-18T03:00:08;12.43;;;6.43;;
32152;SDS011;18656;50.580;11.392;2022-12-18T03:07:37;8.77;;;4.85;;
32152;SDS011;18656;50.580;11.392;2022-12-18T03:10:06;10.73;;;5.78;;
32152;SDS011;18656;50.580;11.392;2022-12-18T03:12:42;14.18;;;5.20;;
32152;SDS011;18656;50.580;11.392;2022-12-18T03:17:46;16.48;;;7.45;;
32152;SDS011;18656;50.580;11.392;2022-12-18T03:20:17;14.38;;;5.93;;
32152;SDS011;18656;50.580;11.392;2022-12-18T03:22:46;15.63;;;6.85;;
32152;SDS011;18656;50.580;11.392;2022-12-18T03:25:14;13.55;;;6.20;;
32152;SDS011;18656;50.580;11.392;2022-12-18T03:27:43;11.52;;;6.07;;
32152;SDS011;18656;50.580;11.392;2022-12-18T03:30:12;13.23;;;6.72;;
32152;SDS011;18656;50.580;11.392;2022-12-18T03:35:26;11.18;;;5.47;;
32152;SDS011;18656;50.580;11.392;2022-12-18T03:37:55;15.05;;;7.18;;
32152;SDS011;18656;50.580;11.392;2022-12-18T03:40:24;13.18;;;6.35;;
32152;SDS011;18656;50.580;11.392;2022-12-18T03:43:02;11.77;;;5.50;;
32152;SDS011;18656;50.580;11.392;2022-12-18T03:45:32;9.93;;;5.85;;
32152;SDS011;18656;50.580;11.392;2022-12-18T03:48:26;13.45;;;6.13;;
32152;SDS011;18656;50.580;11.392;2022-12-18T03:50:50;10.07;;;5.50;;
32152;SDS011;18656;50.580;11.392;2022-12-18T03:56:08;9.73;;;5.45;;
32152;SDS011;18656;50.580;11.392;2022-12-18T03:58:37;9.75;;;5.10;;
32152;SDS011;18656;50.580;11.392;2022-12-18T04:01:08;11.07;;;5.50;;
32152;SDS011;18656;50.580;11.392;2022-12-18T04:03:38;9.25;;;3.80;;
32152;SDS011;18656;50.580;11.392;2022-12-18T04:06:06;12.25;;;5.18;;
32152;SDS011;18656;50.580;11.392;2022-12-18T04:08:34;12.40;;;4.82;;
32152;SDS011;18656;50.580;11.392;2022-12-18T04:11:02;14.82;;;5.43;;
32152;SDS011;18656;50.580;11.392;2022-12-18T04:13:37;10.00;;;5.03;;
32152;SDS011;18656;50.580;11.392;2022-12-18T04:16:05;15.85;;;5.15;;
32152;SDS011;18656;50.580;11.392;2022-12-18T04:18:32;15.10;;;5.22;;
32152;SDS011;18656;50.580;11.392;2022-12-18T04:21:00;8.65;;;4.93;;
32152;SDS011;18656;50.580;11.392;2022-12-18T04:23:27;13.82;;;5.13;;
32152;SDS011;18656;50.580;11.392;2022-12-18T04:25:54;17.65;;;7.65;;
32152;SDS011;18656;50.580;11.392;2022-12-18T04:28:21;14.35;;;8.05;;
32152;SDS011;18656;50.580;11.392;2022-12-18T04:30:49;9.45;;;4.88;;
32152;SDS011;18656;50.580;11.392;2022-12-18T04:33:16;10.48;;;4.47;;
32152;SDS011;18656;50.580;11.392;2022-12-18T04:35:44;8.63;;;4.68;;
32152;SDS011;18656;50.580;11.392;2022-12-18T04:38:11;11.27;;;5.10;;
32152;SDS011;18656;50.580;11.392;2022-12-18T04:40:39;6.93;;;4.65;;
32152;SDS011;18656;50.580;11.392;2022-12-18T04:43:07;15.23;;;6.13;;
32152;SDS011;18656;50.580;11.392;2022-12-18T04:45:34;7.72;;;5.00;;
32152;SDS011;18656;50.580;11.392;2022-12-18T04:48:02;5.80;;;4.82;;
32152;SDS011;18656;50.580;11.392;2022-12-18T04:50:29;11.43;;;5.53;;
32152;SDS011;18656;50.580;11.392;2022-12-18T04:52:57;9.30;;;5.38;;
32152;SDS011;18656;50.580;11.392;2022-12-18T04:55:24;8.73;;;4.90;;
32152;SDS011;18656;50.580;11.392;2022-12-18T04:57:53;16.27;;;6.57;;
32152;SDS011;18656;50.580;11.392;2022-12-18T05:00:20;13.95;;;6.18;;
32152;SDS011;18656;50.580;11.392;2022-12-18T05:02:48;21.05;;;9.15;;
32152;SDS011;18656;50.580;11.392;2022-12-18T05:05:15;65.93;;;18.90;;
32152;SDS011;18656;50.580;11.392;2022-12-18T05:07:43;36.65;;;12.57;;
32152;SDS011;18656;50.580;11.392;2022-12-18T05:10:11;23.10;;;8.18;;
32152;SDS011;18656;50.580;11.392;2022-12-18T05:12:38;8.63;;;5.00;;
32152;SDS011;18656;50.580;11.392;2022-12-18T05:15:30;9.00;;;4.10;;
32152;SDS011;18656;50.580;11.392;2022-12-18T05:17:58;4.43;;;2.97;;
32152;SDS011;18656;50.580;11.392;2022-12-18T05:20:26;12.35;;;5.05;;
32152;SDS011;18656;50.580;11.392;2022-12-18T05:22:54;9.70;;;4.85;;
32152;SDS011;18656;50.580;11.392;2022-12-18T05:25:22;7.57;;;4.75;;
32152;SDS011;18656;50.580;11.392;2022-12-18T05:27:49;10.93;;;5.35;;
32152;SDS011;18656;50.580;11.392;2022-12-18T05:30:17;5.72;;;4.78;;
32152;SDS011;18656;50.580;11.392;2022-12-18T05:32:44;12.63;;;4.60;;
32152;SDS011;18656;50.580;11.392;2022-12-18T05:35:11;12.73;;;5.55;;
32152;SDS011;18656;50.580;11.392;2022-12-18T05:37:38;6.95;;;4.25;;
32152;SDS011;18656;50.580;11.392;2022-12-18T05:40:08;9.00;;;4.53;;
32152;SDS011;18656;50.580;11.392;2022-12-18T05:42:35;8.15;;;4.88;;
32152;SDS011;18656;50.580;11.392;2022-12-18T05:45:03;6.13;;;4.13;;
32152;SDS011;18656;50.580;11.392;2022-12-18T05:47:30;8.13;;;4.40;;
32152;SDS011;18656;50.580;11.392;2022-12-18T05:49:58;8.02;;;4.72;;
32152;SDS011;18656;50.580;11.392;2022-12-18T05:52:25;5.95;;;3.80;;
32152;SDS011;18656;50.580;11.392;2022-12-18T05:54:52;8.80;;;4.82;;
32152;SDS011;18656;50.580;11.392;2022-12-18T05:57:20;8.18;;;4.25;;
32152;SDS011;18656;50.580;11.392;2022-12-18T05:59:47;6.28;;;4.43;;
32152;SDS011;18656;50.580;11.392;2022-12-18T06:02:14;13.35;;;5.32;;
32152;SDS011;18656;50.580;11.392;2022-12-18T06:04:41;16.90;;;7.28;;
32152;SDS011;18656;50.580;11.392;2022-12-18T06:07:09;20.45;;;8.13;;
32152;SDS011;18656;50.580;11.392;2022-12-18T06:09:36;25.33;;;9.55;;
32152;SDS011;18656;50.580;11.392;2022-12-18T06:12:03;22.30;;;8.70;;
32152;SDS011;18656;50.580;11.392;2022-12-18T06:14:30;15.57;;;6.45;;
32152;SDS011;18656;50.580;11.392;2022-12-18T06:16:58;7.28;;;4.38;;
32152;SDS011;18656;50.580;11.392;2022-12-18T06:19:25;11.40;;;6.50;;
32152;SDS011;18656;50.580;11.392;2022-12-18T06:21:52;20.92;;;7.97;;
32152;SDS011;18656;50.580;11.392;2022-12-18T06:24:19;18.33;;;7.88;;
32152;SDS011;18656;50.580;11.392;2022-12-18T06:26:47;14.93;;;7.15;;
32152;SDS011;18656;50.580;11.392;2022-12-18T06:29:14;12.50;;;6.38;;
32152;SDS011;18656;50.580;11.392;2022-12-18T06:31:41;9.95;;;5.68;;
32152;SDS011;18656;50.580;11.392;2022-12-18T06:34:08;7.07;;;5.38;;
32152;SDS011;18656;50.580;11.392;2022-12-18T06:36:36;9.40;;;4.50;;
32152;SDS011;18656;50.580;11.392;2022-12-18T06:39:03;6.40;;;4.15;;
32152;SDS011;18656;50.580;11.392;2022-12-18T06:41:31;9.93;;;5.03;;
32152;SDS011;18656;50.580;11.392;2022-12-18T06:43:58;6.18;;;4.13;;
32152;SDS011;18656;50.580;11.392;2022-12-18T06:46:26;9.60;;;5.03;;
32152;SDS011;18656;50.580;11.392;2022-12-18T06:48:53;11.88;;;5.93;;
32152;SDS011;18656;50.580;11.392;2022-12-18T06:51:23;13.30;;;6.60;;
32152;SDS011;18656;50.580;11.392;2022-12-18T06:53:50;7.43;;;4.95;;
32152;SDS011;18656;50.580;11.392;2022-12-18T06:56:18;6.22;;;4.88;;
32152;SDS011;18656;50.580;11.392;2022-12-18T06:58:45;12.43;;;7.10;;
32152;SDS011;18656;50.580;11.392;2022-12-18T07:01:12;13.30;;;6.55;;
32152;SDS011;18656;50.580;11.392;2022-12-18T07:03:40;9.50;;;5.38;;
32152;SDS011;18656;50.580;11.392;2022-12-18T07:06:26;7.03;;;4.78;;
32152;SDS011;18656;50.580;11.392;2022-12-18T07:08:54;9.57;;;5.65;;
32152;SDS011;18656;50.580;11.392;2022-12-18T07:11:21;15.18;;;5.22;;
32152;SDS011;18656;50.580;11.392;2022-12-18T07:13:48;20.65;;;6.80;;
32152;SDS011;18656;50.580;11.392;2022-12-18T07:16:19;13.15;;;6.18;;
32152;SDS011;18656;50.580;11.392;2022-12-18T07:21:18;9.65;;;4.82;;
32152;SDS011;18656;50.580;11.392;2022-12-18T07:23:46;13.90;;;6.25;;
32152;SDS011;18656;50.580;11.392;2022-12-18T07:26:15;8.38;;;5.03;;
32152;SDS011;18656;50.580;11.392;2022-12-18T07:28:44;14.23;;;7.07;;
32152;SDS011;18656;50.580;11.392;2022-12-18T07:31:18;14.20;;;7.72;;
32152;SDS011;18656;50.580;11.392;2022-12-18T07:33:47;17.10;;;7.15;;
32152;SDS011;18656;50.580;11.392;2022-12-18T07:36:14;22.42;;;8.20;;
32152;SDS011;18656;50.580;11.392;2022-12-18T07:38:42;18.17;;;7.82;;
32152;SDS011;18656;50.580;11.392;2022-12-18T07:41:10;18.13;;;8.60;;
32152;SDS011;18656;50.580;11.392;2022-12-18T07:43:37;24.65;;;8.93;;
32152;SDS011;18656;50.580;11.392;2022-12-18T07:46:07;24.75;;;9.73;;
32152;SDS011;18656;50.580;11.392;2022-12-18T07:48:35;25.63;;;8.18;;
32152;SDS011;18656;50.580;11.392;2022-12-18T07:51:03;27.42;;;9.88;;
32152;SDS011;18656;50.580;11.392;2022-12-18T07:53:31;31.13;;;10.43;;
32152;SDS011;18656;50.580;11.392;2022-12-18T07:56:05;28.55;;;11.10;;
32152;SDS011;18656;50.580;11.392;2022-12-18T07:58:53;32.35;;;11.63;;
32152;SDS011;18656;50.580;11.392;2022-12-18T08:01:21;29.55;;;11.43;;
32152;SDS011;18656;50.580;11.392;2022-12-18T08:03:48;25.88;;;10.77;;
32152;SDS011;18656;50.580;11.392;2022-12-18T08:06:17;23.35;;;9.50;;
32152;SDS011;18656;50.580;11.392;2022-12-18T08:08:50;22.63;;;10.85;;
32152;SDS011;18656;50.580;11.392;2022-12-18T08:11:17;24.98;;;11.70;;
32152;SDS011;18656;50.580;11.392;2022-12-18T08:13:46;25.35;;;10.63;;
32152;SDS011;18656;50.580;11.392;2022-12-18T08:16:14;16.50;;;8.60;;
32152;SDS011;18656;50.580;11.392;2022-12-18T08:18:42;20.60;;;9.75;;
32152;SDS011;18656;50.580;11.392;2022-12-18T08:21:11;14.10;;;8.20;;
32152;SDS011;18656;50.580;11.392;2022-12-18T08:23:38;22.67;;;11.15;;
32152;SDS011;18656;50.580;11.392;2022-12-18T08:26:08;19.73;;;10.57;;
32152;SDS011;18656;50.580;11.392;2022-12-18T08:28:37;24.27;;;10.68;;
32152;SDS011;18656;50.580;11.392;2022-12-18T08:31:04;20.52;;;10.45;;
32152;SDS011;18656;50.580;11.392;2022-12-18T08:33:32;39.13;;;16.63;;
32152;SDS011;18656;50.580;11.392;2022-12-18T08:35:59;19.75;;;10.13;;
32152;SDS011;18656;50.580;11.392;2022-12-18T08:38:27;18.55;;;9.50;;
32152;SDS011;18656;50.580;11.392;2022-12-18T08:40:58;15.80;;;7.68;;
32152;SDS011;18656;50.580;11.392;2022-12-18T08:43:26;11.20;;;6.38;;
32152;SDS011;18656;50.580;11.392;2022-12-18T08:46:12;17.77;;;9.15;;
32152;SDS011;18656;50.580;11.392;2022-12-18T08:48:41;16.15;;;8.38;;
32152;SDS011;18656;50.580;11.392;2022-12-18T08:51:22;16.45;;;9.15;;
32152;SDS011;18656;50.580;11.392;2022-12-18T08:53:50;17.52;;;8.80;;
32152;SDS011;18656;50.580;11.392;2022-12-18T08:56:17;14.98;;;8.13;;
32152;SDS011;18656;50.580;11.392;2022-12-18T08:58:54;14.90;;;7.25;;
32152;SDS011;18656;50.580;11.392;2022-12-18T09:01:22;18.35;;;9.82;;
32152;SDS011;18656;50.580;11.392;2022-12-18T09:03:50;24.33;;;11.45;;
32152;SDS011;18656;50.580;11.392;2022-12-18T09:06:19;27.10;;;10.25;;
32152;SDS011;18656;50.580;11.392;2022-12-18T09:08:46;19.55;;;11.10;;
32152;SDS011;18656;50.580;11.392;2022-12-18T09:11:15;21.65;;;10.75;;
32152;SDS011;18656;50.580;11.392;2022-12-18T09:13:45;33.22;;;14.95;;
32152;SDS011;18656;50.580;11.392;2022-12-18T09:16:16;37.78;;;16.88;;
32152;SDS011;18656;50.580;11.392;2022-12-18T09:18:43;50.25;;;24.30;;
32152;SDS011;18656;50.580;11.392;2022-12-18T09:21:15;34.58;;;17.42;;
32152;SDS011;18656;50.580;11.392;2022-12-18T09:23:42;20.75;;;9.70;;
32152;SDS011;18656;50.580;11.392;2022-12-18T09:26:11;36.25;;;13.88;;
32152;SDS011;18656;50.580;11.392;2022-12-18T09:28:39;43.15;;;19.35;;
32152;SDS011;18656;50.580;11.392;2022-12-18T09:31:07;32.67;;;14.60;;
32152;SDS011;18656;50.580;11.392;2022-12-18T09:33:38;34.10;;;15.48;;
32152;SDS011;18656;50.580;11.392;2022-12-18T09:36:08;39.88;;;16.27;;
32152;SDS011;18656;50.580;11.392;2022-12-18T09:38:36;45.85;;;19.45;;
32152;SDS011;18656;50.580;11.392;2022-12-18T09:41:15;56.40;;;24.67;;
32152;SDS011;18656;50.580;11.392;2022-12-18T09:43:55;46.97;;;22.17;;
32152;SDS011;18656;50.580;11.392;2022-12-18T09:46:28;50.10;;;21.58;;
32152;SDS011;18656;50.580;11.392;2022-12-18T09:48:59;46.50;;;20.85;;
32152;SDS011;18656;50.580;11.392;2022-12-18T09:51:42;39.10;;;16.88;;
32152;SDS011;18656;50.580;11.392;2022-12-18T09:54:20;32.65;;;13.52;;
32152;SDS011;18656;50.580;11.392;2022-12-18T09:56:49;28.48;;;12.05;;
32152;SDS011;18656;50.580;11.392;2022-12-18T10:01:44;25.85;;;12.25;;
32152;SDS011;18656;50.580;11.392;2022-12-18T10:04:12;26.35;;;13.38;;
32152;SDS011;18656;50.580;11.392;2022-12-18T10:19:51;8.98;;;5.45;;
32152;SDS011;18656;50.580;11.392;2022-12-18T10:22:26;10.48;;;5.50;;
32152;SDS011;18656;50.580;11.392;2022-12-18T10:27:42;8.30;;;4.68;;
32152;SDS011;18656;50.580;11.392;2022-12-18T10:30:17;9.75;;;5.03;;
32152;SDS011;18656;50.580;11.392;2022-12-18T10:32:44;16.67;;;11.98;;
32152;SDS011;18656;50.580;11.392;2022-12-18T10:35:22;18.25;;;12.75;;
32152;SDS011;18656;50.580;11.392;2022-12-18T10:38:07;17.75;;;10.90;;
32152;SDS011;18656;50.580;11.392;2022-12-18T10:40:55;22.20;;;10.65;;
32152;SDS011;18656;50.580;11.392;2022-12-18T10:43:44;10.57;;;7.18;;
32152;SDS011;18656;50.580;11.392;2022-12-18T10:51:09;8.73;;;5.22;;
32152;SDS011;18656;50.580;11.392;2022-12-18T10:53:39;11.98;;;6.03;;
32152;SDS011;18656;50.580;11.392;2022-12-18T10:56:07;15.55;;;7.53;;
32152;SDS011;18656;50.580;11.392;2022-12-18T10:58:36;11.32;;;7.40;;
32152;SDS011;18656;50.580;11.392;2022-12-18T11:01:05;9.02;;;6.43;;
32152;SDS011;18656;50.580;11.392;2022-12-18T11:03:34;7.93;;;4.78;;
32152;SDS011;18656;50.580;11.392;2022-12-18T11:06:12;9.30;;;3.85;;
32152;SDS011;18656;50.580;11.392;2022-12-18T11:08:41;8.55;;;4.00;;
32152;SDS011;18656;50.580;11.392;2022-12-18T11:11:19;11.50;;;4.93;;
32152;SDS011;18656;50.580;11.392;2022-12-18T11:14:01;8.63;;;4.50;;
32152;SDS011;18656;50.580;11.392;2022-12-18T11:16:30;9.25;;;3.80;;
32152;SDS011;18656;50.580;11.392;2022-12-18T11:19:13;9.30;;;4.93;;
32152;SDS011;18656;50.580;11.392;2022-12-18T11:21:42;13.68;;;5.50;;
32152;SDS011;18656;50.580;11.392;2022-12-18T11:27:06;12.30;;;7.40;;
32152;SDS011;18656;50.580;11.392;2022-12-18T11:29:42;12.07;;;7.20;;
32152;SDS011;18656;50.580;11.392;2022-12-18T11:34:44;14.27;;;6.20;;
32152;SDS011;18656;50.580;11.392;2022-12-18T11:37:13;18.08;;;6.78;;
32152;SDS011;18656;50.580;11.392;2022-12-18T11:40:09;14.52;;;8.02;;
32152;SDS011;18656;50.580;11.392;2022-12-18T11:50:21;5.60;;;4.15;;
32152;SDS011;18656;50.580;11.392;2022-12-18T11:52:50;10.88;;;5.28;;
32152;SDS011;18656;50.580;11.392;2022-12-18T11:58:09;10.75;;;6.00;;
32152;SDS011;18656;50.580;11.392;2022-12-18T12:00:42;28.45;;;14.10;;
32152;SDS011;18656;50.580;11.392;2022-12-18T12:03:35;16.38;;;7.57;;
32152;SDS011;18656;50.580;11.392;2022-12-18T12:08:48;21.63;;;7.78;;
32152;SDS011;18656;50.580;11.392;2022-12-18T12:16:51;16.38;;;5.88;;
32152;SDS011;18656;50.580;11.392;2022-12-18T12:22:04;20.88;;;7.28;;
32152;SDS011;18656;50.580;11.392;2022-12-18T12:30:10;27.75;;;8.38;;
32152;SDS011;18656;50.580;11.392;2022-12-18T12:35:19;30.85;;;8.02;;
32152;SDS011;18656;50.580;11.392;2022-12-18T12:37:56;23.85;;;6.70;;
32152;SDS011;18656;50.580;11.392;2022-12-18T12:40:27;16.13;;;6.25;;
32152;SDS011;18656;50.580;11.392;2022-12-18T12:43:19;15.43;;;5.88;;
32152;SDS011;18656;50.580;11.392;2022-12-18T12:48:31;10.63;;;5.03;;
32152;SDS011;18656;50.580;11.392;2022-12-18T12:51:01;9.23;;;5.38;;
32152;SDS011;18656;50.580;11.392;2022-12-18T12:53:30;6.82;;;4.28;;
32152;SDS011;18656;50.580;11.392;2022-12-18T12:55:59;8.00;;;4.10;;
32152;SDS011;18656;50.580;11.392;2022-12-18T12:58:36;8.57;;;4.50;;
32152;SDS011;18656;50.580;11.392;2022-12-18T13:03:45;8.07;;;4.45;;
32152;SDS011;18656;50.580;11.392;2022-12-18T13:06:16;7.05;;;4.25;;
32152;SDS011;18656;50.580;11.392;2022-12-18T13:08:54;5.65;;;4.18;;
32152;SDS011;18656;50.580;11.392;2022-12-18T13:11:34;6.40;;;4.05;;
32152;SDS011;18656;50.580;11.392;2022-12-18T13:14:40;21.20;;;10.63;;
32152;SDS011;18656;50.580;11.392;2022-12-18T13:17:14;13.60;;;8.27;;
32152;SDS011;18656;50.580;11.392;2022-12-18T13:19:43;45.65;;;25.88;;
32152;SDS011;18656;50.580;11.392;2022-12-18T13:22:21;83.45;;;47.03;;
32152;SDS011;18656;50.580;11.392;2022-12-18T13:24:49;66.47;;;36.97;;
32152;SDS011;18656;50.580;11.392;2022-12-18T13:30:15;57.90;;;35.13;;
32152;SDS011;18656;50.580;11.392;2022-12-18T13:33:19;62.70;;;35.97;;
32152;SDS011;18656;50.580;11.392;2022-12-18T13:35:40;72.38;;;42.80;;
32152;SDS011;18656;50.580;11.392;2022-12-18T13:38:21;48.60;;;27.38;;
32152;SDS011;18656;50.580;11.392;2022-12-18T13:46:00;38.72;;;20.75;;
32152;SDS011;18656;50.580;11.392;2022-12-18T13:48:28;38.42;;;20.35;;
32152;SDS011;18656;50.580;11.392;2022-12-18T13:51:06;34.72;;;14.55;;
32152;SDS011;18656;50.580;11.392;2022-12-18T13:53:37;28.40;;;12.80;;
32152;SDS011;18656;50.580;11.392;2022-12-18T13:56:06;23.45;;;12.18;;
32152;SDS011;18656;50.580;11.392;2022-12-18T13:58:33;25.52;;;11.90;;
32152;SDS011;18656;50.580;11.392;2022-12-18T14:01:00;22.00;;;12.10;;
32152;SDS011;18656;50.580;11.392;2022-12-18T14:03:31;18.80;;;10.13;;
32152;SDS011;18656;50.580;11.392;2022-12-18T14:06:00;17.45;;;10.88;;
32152;SDS011;18656;50.580;11.392;2022-12-18T14:08:32;17.60;;;9.10;;
32152;SDS011;18656;50.580;11.392;2022-12-18T14:10:59;20.05;;;9.25;;
32152;SDS011;18656;50.580;11.392;2022-12-18T14:13:29;18.95;;;9.30;;
32152;SDS011;18656;50.580;11.392;2022-12-18T14:15:58;12.60;;;7.65;;
32152;SDS011;18656;50.580;11.392;2022-12-18T14:18:32;17.67;;;7.78;;
32152;SDS011;18656;50.580;11.392;2022-12-18T14:21:01;15.82;;;7.32;;
32152;SDS011;18656;50.580;11.392;2022-12-18T14:23:38;16.08;;;7.45;;
32152;SDS011;18656;50.580;11.392;2022-12-18T14:28:49;15.23;;;8.80;;
32152;SDS011;18656;50.580;11.392;2022-12-18T14:31:18;17.90;;;8.75;;
32152;SDS011;18656;50.580;11.392;2022-12-18T14:33:45;16.10;;;8.02;;
32152;SDS011;18656;50.580;11.392;2022-12-18T14:36:26;19.83;;;12.27;;
32152;SDS011;18656;50.580;11.392;2022-12-18T14:38:56;16.60;;;12.10;;
32152;SDS011;18656;50.580;11.392;2022-12-18T14:41:24;25.10;;;10.68;;
32152;SDS011;18656;50.580;11.392;2022-12-18T14:43:53;18.77;;;9.68;;
32152;SDS011;18656;50.580;11.392;2022-12-18T14:46:26;14.57;;;8.05;;
32152;SDS011;18656;50.580;11.392;2022-12-18T14:48:54;12.68;;;7.45;;
32152;SDS011;18656;50.580;11.392;2022-12-18T14:51:24;11.82;;;8.02;;
32152;SDS011;18656;50.580;11.392;2022-12-18T14:54:02;17.40;;;8.32;;
32152;SDS011;18656;50.580;11.392;2022-12-18T14:56:31;14.00;;;8.18;;
32152;SDS011;18656;50.580;11.392;2022-12-18T14:59:15;18.92;;;9.48;;
32152;SDS011;18656;50.580;11.392;2022-12-18T15:04:24;17.10;;;9.25;;
32152;SDS011;18656;50.580;11.392;2022-12-18T15:09:31;17.13;;;11.02;;
32152;SDS011;18656;50.580;11.392;2022-12-18T15:12:00;25.75;;;12.40;;
32152;SDS011;18656;50.580;11.392;2022-12-18T15:16:58;23.38;;;12.65;;
32152;SDS011;18656;50.580;11.392;2022-12-18T15:19:39;22.58;;;13.90;;
32152;SDS011;18656;50.580;11.392;2022-12-18T15:24:44;23.60;;;12.18;;
32152;SDS011;18656;50.580;11.392;2022-12-18T15:32:27;26.00;;;13.60;;
32152;SDS011;18656;50.580;11.392;2022-12-18T15:37:37;24.70;;;12.00;;
32152;SDS011;18656;50.580;11.392;2022-12-18T15:40:05;30.00;;;11.55;;
32152;SDS011;18656;50.580;11.392;2022-12-18T15:42:33;22.20;;;10.88;;
32152;SDS011;18656;50.580;11.392;2022-12-18T15:45:19;23.00;;;10.50;;
32152;SDS011;18656;50.580;11.392;2022-12-18T15:47:49;25.05;;;14.20;;
32152;SDS011;18656;50.580;11.392;2022-12-18T15:50:16;17.35;;;10.25;;
32152;SDS011;18656;50.580;11.392;2022-12-18T15:52:44;18.63;;;11.32;;
32152;SDS011;18656;50.580;11.392;2022-12-18T15:55:13;23.05;;;13.15;;
32152;SDS011;18656;50.580;11.392;2022-12-18T15:58:01;21.00;;;12.50;;
32152;SDS011;18656;50.580;11.392;2022-12-18T16:00:28;21.27;;;12.07;;
32152;SDS011;18656;50.580;11.392;2022-12-18T16:02:55;26.77;;;12.93;;
32152;SDS011;18656;50.580;11.392;2022-12-18T16:05:23;13.00;;;5.68;;
32152;SDS011;18656;50.580;11.392;2022-12-18T16:07:50;8.45;;;5.15;;
32152;SDS011;18656;50.580;11.392;2022-12-18T16:10:18;11.95;;;5.72;;
32152;SDS011;18656;50.580;11.392;2022-12-18T16:12:45;9.82;;;4.30;;
32152;SDS011;18656;50.580;11.392;2022-12-18T16:15:13;6.75;;;4.68;;
32152;SDS011;18656;50.580;11.392;2022-12-18T16:17:49;6.70;;;4.00;;
32152;SDS011;18656;50.580;11.392;2022-12-18T16:20:19;7.45;;;4.15;;
32152;SDS011;18656;50.580;11.392;2022-12-18T16:22:47;5.78;;;4.32;;
32152;SDS011;18656;50.580;11.392;2022-12-18T16:25:19;7.82;;;4.57;;
32152;SDS011;18656;50.580;11.392;2022-12-18T16:27:47;7.55;;;4.22;;
32152;SDS011;18656;50.580;11.392;2022-12-18T16:30:16;9.93;;;5.18;;
32152;SDS011;18656;50.580;11.392;2022-12-18T16:32:44;8.32;;;4.57;;
32152;SDS011;18656;50.580;11.392;2022-12-18T16:35:12;8.05;;;4.50;;
32152;SDS011;18656;50.580;11.392;2022-12-18T16:37:39;9.48;;;4.93;;
32152;SDS011;18656;50.580;11.392;2022-12-18T16:40:07;11.27;;;4.75;;
32152;SDS011;18656;50.580;11.392;2022-12-18T16:42:35;8.10;;;4.80;;
32152;SDS011;18656;50.580;11.392;2022-12-18T16:45:03;6.70;;;4.60;;
32152;SDS011;18656;50.580;11.392;2022-12-18T16:47:30;9.82;;;5.10;;
32152;SDS011;18656;50.580;11.392;2022-12-18T16:49:57;8.45;;;4.97;;
32152;SDS011;18656;50.580;11.392;2022-12-18T16:52:25;9.32;;;5.18;;